Time;durP1;ratioP1;P1;durP2;ratioP2;P2;SDS_P1;SDS_P2;PMS_P1;PMS_P2;Temp;Humidity;BMP_temperature;BMP_pressure;BME280_temperature;BME280_humidity;BME280_pressure;Samples;Min_cycle;Max_cycle;Signal;HPM_P1;HPM_P2
2024/01/12 00:02:02;;;;;;;;;;;;;;;10.70;53.27;103515.78;5113518;28;20252;-63
2024/01/12 00:04:28;;;;;;;;;;;;;;;10.55;53.72;103519.06;5113386;28;19915;-65
2024/01/12 00:06:53;;;;;;;;;;;;;;;10.81;53.24;103519.00;5113232;28;20384;-65
2024/01/12 00:09:18;;;;;;;;;;;;;;;10.77;53.37;103517.66;5113108;28;20468;-66
2024/01/12 00:11:44;;;;;;;;;;;;;;;10.82;53.28;103534.16;5113237;28;19995;-66
2024/01/12 00:14:09;;;;;;;;;;;;;;;10.69;53.42;103527.53;5113435;28;19957;-65
2024/01/12 00:16:34;;;;;;;;;;;;;;;10.75;53.46;103529.59;5113608;28;20255;-66
2024/01/12 00:18:59;;;;;;;;;;;;;;;10.81;53.64;103535.16;5113086;28;19951;-67
2024/01/12 00:21:25;;;;;;;;;;;;;;;10.88;53.19;103532.69;5113045;28;19916;-65
2024/01/12 00:23:50;;;;;;;;;;;;;;;10.81;53.72;103529.78;5112974;28;20680;-69
2024/01/12 00:26:15;;;;;;;;;;;;;;;10.82;53.60;103541.38;5099195;28;19931;-68
2024/01/12 00:28:40;;;;;;;;;;;;;;;10.85;53.37;103533.00;5092984;28;19912;-67
2024/01/12 00:31:06;;;;;;;;;;;;;;;10.84;53.56;103534.00;5092682;28;19916;-68
2024/01/12 00:33:31;;;;;;;;;;;;;;;10.86;53.49;103534.69;5092503;28;20386;-67
2024/01/12 00:35:56;;;;;;;;;;;;;;;10.93;53.23;103541.13;5092010;28;19931;-68
2024/01/12 00:38:21;;;;;;;;;;;;;;;10.86;53.38;103535.53;5092098;28;20002;-67
2024/01/12 00:40:47;;;;;;;;;;;;;;;10.88;53.42;103546.97;5093067;28;20060;-67
2024/01/12 00:43:12;;;;;;;;;;;;;;;10.86;53.41;103545.44;5090452;28;20377;-67
2024/01/12 00:45:37;;;;;;;;;;;;;;;10.87;53.20;103555.22;5100116;28;19915;-67
2024/01/12 00:48:04;;;;;;;;;;;;;;;10.88;53.70;103549.66;5112560;28;19911;-67
2024/01/12 00:50:29;;;;;;;;;;;;;;;10.75;54.19;103541.16;5112512;28;19923;-66
2024/01/12 00:52:54;;;;;;;;;;;;;;;10.82;53.80;103546.75;5113107;28;19912;-68
2024/01/12 00:55:20;;;;;;;;;;;;;;;10.98;53.58;103536.94;5112189;28;19912;-68
2024/01/12 00:57:46;;;;;;;;;;;;;;;11.03;53.45;103533.72;5112204;28;20018;-67
2024/01/12 01:00:11;;;;;;;;;;;;;;;11.02;53.27;103537.44;5112268;28;19915;-68
2024/01/12 01:02:36;;;;;;;;;;;;;;;10.92;53.70;103531.34;5112039;28;19965;-68
2024/01/12 01:05:02;;;;;;;;;;;;;;;11.03;53.51;103526.50;5108907;28;19983;-67
2024/01/12 01:07:28;;;;;;;;;;;;;;;11.06;53.26;103522.66;5091752;28;19920;-68
2024/01/12 01:09:53;;;;;;;;;;;;;;;11.06;53.08;103522.66;5091733;28;20003;-70
2024/01/12 01:12:19;;;;;;;;;;;;;;;11.07;53.35;103527.03;5091305;28;19916;-68
2024/01/12 01:14:44;;;;;;;;;;;;;;;10.99;52.91;103524.31;5092092;28;19923;-70
2024/01/12 01:17:09;;;;;;;;;;;;;;;10.99;53.35;103529.69;5091698;28;19912;-68
2024/01/12 01:19:35;;;;;;;;;;;;;;;10.98;53.22;103528.88;5091993;28;19908;-67
2024/01/12 01:22:00;;;;;;;;;;;;;;;10.47;55.11;103534.31;5091581;28;19977;-68
2024/01/12 01:24:28;;;;;;;;;;;;;;;10.81;54.59;103535.16;5091253;28;19920;-69
2024/01/12 01:26:54;;;;;;;;;;;;;;;11.10;53.49;103537.47;5110209;28;19919;-68
2024/01/12 01:29:19;;;;;;;;;;;;;;;11.02;53.41;103532.06;5111829;28;19912;-66
2024/01/12 01:31:44;;;;;;;;;;;;;;;11.21;53.30;103529.94;5112328;28;19991;-67
2024/01/12 01:34:09;;;;;;;;;;;;;;;11.30;53.20;103526.25;5111609;28;20228;-67
2024/01/12 01:36:35;;;;;;;;;;;;;;;11.24;53.27;103524.22;5111840;28;19970;-67
2024/01/12 01:39:00;;;;;;;;;;;;;;;11.25;53.19;103520.53;5111522;28;19915;-67
2024/01/12 01:41:25;;;;;;;;;;;;;;;11.21;53.23;103518.31;5111366;28;19908;-67
2024/01/12 01:43:51;;;;;;;;;;;;;;;11.18;53.08;103519.50;5111784;28;19908;-66
2024/01/12 01:46:16;;;;;;;;;;;;;;;11.19;53.42;103515.81;5110540;28;20014;-67
2024/01/12 01:48:41;;;;;;;;;;;;;;;11.23;53.33;103522.56;5090939;28;19920;-67
2024/01/12 01:51:06;;;;;;;;;;;;;;;11.27;53.21;103517.69;5103555;28;19981;-68
2024/01/12 01:53:32;;;;;;;;;;;;;;;11.02;53.66;103515.91;5111389;28;19923;-71
2024/01/12 01:55:57;;;;;;;;;;;;;;;10.45;56.03;103523.72;5111691;28;19918;-66
2024/01/12 01:58:22;;;;;;;;;;;;;;;9.88;59.72;103515.38;5111152;28;20290;-67
2024/01/12 02:00:49;;;;;;;;;;;;;;;11.24;54.63;103518.00;5111435;28;19915;-68
2024/01/12 02:03:15;;;;;;;;;;;;;;;11.29;53.92;103521.91;5090973;28;19916;-65
2024/01/12 02:05:40;;;;;;;;;;;;;;;11.42;53.59;103514.19;5100133;28;20252;-67
2024/01/12 02:08:06;;;;;;;;;;;;;;;11.54;53.34;103513.88;5111682;28;19953;-68
2024/01/12 02:10:31;;;;;;;;;;;;;;;11.64;52.71;103512.69;5111259;28;20000;-67
2024/01/12 02:12:56;;;;;;;;;;;;;;;11.69;52.65;103505.00;5110867;28;20085;-68
2024/01/12 02:15:22;;;;;;;;;;;;;;;11.66;52.04;103515.25;5111083;28;19968;-67
2024/01/12 02:17:47;;;;;;;;;;;;;;;11.02;54.15;103510.53;5091878;28;19997;-67
2024/01/12 02:20:13;;;;;;;;;;;;;;;11.43;52.69;103505.09;5111276;28;20252;-67
2024/01/12 02:22:38;;;;;;;;;;;;;;;11.10;54.06;103505.19;5111642;28;20497;-66
2024/01/12 02:25:03;;;;;;;;;;;;;;;11.68;52.72;103514.06;5111400;28;19944;-68
2024/01/12 02:27:29;;;;;;;;;;;;;;;11.35;53.59;103518.56;5094753;28;19947;-67
2024/01/12 02:29:55;;;;;;;;;;;;;;;11.73;52.69;103513.59;5094920;28;19981;-66
2024/01/12 02:32:20;;;;;;;;;;;;;;;11.79;52.34;103505.69;5095090;28;19977;-68
2024/01/12 02:34:45;;;;;;;;;;;;;;;11.64;52.64;103510.00;5095263;28;19939;-68
2024/01/12 02:37:10;;;;;;;;;;;;;;;11.46;53.24;103503.91;5094618;28;20129;-67
2024/01/12 02:39:36;;;;;;;;;;;;;;;11.74;52.50;103508.03;5094798;28;19912;-66
2024/01/12 02:42:01;;;;;;;;;;;;;;;11.79;52.01;103515.59;5094650;28;19923;-70
2024/01/12 02:44:26;;;;;;;;;;;;;;;11.50;53.34;103514.19;5094422;28;19927;-69
2024/01/12 02:46:52;;;;;;;;;;;;;;;11.52;52.97;103512.19;5113047;28;19922;-65
2024/01/12 02:49:17;;;;;;;;;;;;;;;11.85;52.04;103504.16;5114793;28;19970;-67
2024/01/12 02:51:43;;;;;;;;;;;;;;;11.88;51.80;103501.97;5114684;28;19918;-65
2024/01/12 02:54:08;;;;;;;;;;;;;;;10.65;55.52;103507.34;5114841;28;19915;-65
2024/01/12 02:56:34;;;;;;;;;;;;;;;11.16;54.75;103505.34;5114273;28;19911;-67
2024/01/12 02:58:59;;;;;;;;;;;;;;;11.24;54.44;103499.19;5115129;28;20355;-65
2024/01/12 03:01:24;;;;;;;;;;;;;;;11.20;54.23;103498.63;5114377;28;19922;-65
2024/01/12 03:03:50;;;;;;;;;;;;;;;11.35;54.62;103494.31;5114712;28;20386;-65
2024/01/12 03:06:15;;;;;;;;;;;;;;;10.39;56.55;103497.47;5114682;28;19912;-67
2024/01/12 03:08:40;;;;;;;;;;;;;;;10.91;56.75;103502.78;5114131;28;19915;-67
2024/01/12 03:11:06;;;;;;;;;;;;;;;10.97;54.77;103496.72;5114803;28;19962;-66
2024/01/12 03:13:33;;;;;;;;;;;;;;;11.23;54.79;103501.00;5114126;28;19919;-67
2024/01/12 03:15:58;;;;;;;;;;;;;;;11.38;53.99;103501.19;5114300;28;19920;-67
2024/01/12 03:18:23;;;;;;;;;;;;;;;11.13;54.28;103500.31;5114243;28;19918;-67
2024/01/12 03:20:48;;;;;;;;;;;;;;;11.58;53.17;103491.81;5114421;28;19915;-67
2024/01/12 03:23:13;;;;;;;;;;;;;;;11.46;53.00;103498.53;5114070;28;19912;-68
2024/01/12 03:25:39;;;;;;;;;;;;;;;10.93;54.60;103488.13;5114763;28;19904;-67
2024/01/12 03:28:04;;;;;;;;;;;;;;;11.55;53.23;103496.69;5113856;28;19919;-65
2024/01/12 03:30:29;;;;;;;;;;;;;;;11.86;52.27;103489.66;5114019;28;19943;-66
2024/01/12 03:32:55;;;;;;;;;;;;;;;11.70;52.88;103498.59;5113562;28;20007;-66
2024/01/12 03:35:20;;;;;;;;;;;;;;;11.46;53.38;103498.53;5113746;28;19922;-65
2024/01/12 03:37:45;;;;;;;;;;;;;;;11.23;54.24;103497.47;5114602;28;19911;-65
2024/01/12 03:40:11;;;;;;;;;;;;;;;11.91;52.07;103490.84;5113781;28;20509;-67
2024/01/12 03:42:37;;;;;;;;;;;;;;;11.81;52.37;103489.34;5113463;28;20355;-66
2024/01/12 03:45:03;;;;;;;;;;;;;;;11.12;54.02;103490.56;5110857;28;20106;-66
2024/01/12 03:47:28;;;;;;;;;;;;;;;11.78;52.31;103490.50;5111913;28;19928;-65
2024/01/12 03:49:54;;;;;;;;;;;;;;;11.80;52.02;103484.94;5114391;28;20403;-67
2024/01/12 03:52:19;;;;;;;;;;;;;;;11.38;53.36;103491.28;5113657;28;20553;-65
2024/01/12 03:54:44;;;;;;;;;;;;;;;11.62;52.72;103479.69;5113881;28;19916;-68
2024/01/12 03:57:09;;;;;;;;;;;;;;;11.78;52.03;103474.34;5078032;28;19918;-65
2024/01/12 03:59:34;;;;;;;;;;;;;;;11.82;51.81;103478.38;5113583;28;19911;-65
2024/01/12 04:02:00;;;;;;;;;;;;;;;11.79;51.93;103470.66;5113745;28;19947;-65
2024/01/12 04:04:25;;;;;;;;;;;;;;;11.57;51.91;103459.66;5113396;28;19989;-65
2024/01/12 04:06:50;;;;;;;;;;;;;;;11.72;52.07;103448.09;5113362;28;19912;-66
2024/01/12 04:09:15;;;;;;;;;;;;;;;11.77;51.97;103450.28;5113191;28;19915;-67
2024/01/12 04:11:41;;;;;;;;;;;;;;;11.77;51.92;103444.88;5113201;28;20378;-64
2024/01/12 04:14:06;;;;;;;;;;;;;;;11.65;52.20;103441.66;5113639;28;19908;-66
2024/01/12 04:16:31;;;;;;;;;;;;;;;11.90;51.71;103439.81;5077928;28;19911;-65
2024/01/12 04:18:57;;;;;;;;;;;;;;;11.76;51.76;103441.34;5113301;28;19950;-65
2024/01/12 04:21:22;;;;;;;;;;;;;;;11.85;51.60;103428.72;5113336;28;20056;-66
2024/01/12 04:23:47;;;;;;;;;;;;;;;11.58;52.06;103424.47;5113065;28;20419;-65
2024/01/12 04:26:12;;;;;;;;;;;;;;;11.65;52.22;103436.28;5099817;28;19912;-66
2024/01/12 04:28:39;;;;;;;;;;;;;;;11.53;52.72;103437.63;5093169;28;19959;-66
2024/01/12 04:31:05;;;;;;;;;;;;;;;11.68;52.06;103430.56;5092605;28;19981;-65
2024/01/12 04:33:31;;;;;;;;;;;;;;;11.78;51.99;103433.09;5092572;28;19916;-66
2024/01/12 04:35:56;;;;;;;;;;;;;;;11.65;52.13;103436.28;5092412;28;19969;-65
2024/01/12 04:38:22;;;;;;;;;;;;;;;11.76;51.91;103445.88;5092294;28;19912;-65
2024/01/12 04:40:47;;;;;;;;;;;;;;;11.79;51.86;103445.56;5113112;28;20351;-66
2024/01/12 04:43:12;;;;;;;;;;;;;;;11.76;51.75;103443.19;5112454;28;19935;-65
2024/01/12 04:45:37;;;;;;;;;;;;;;;11.70;51.76;103443.88;5086362;28;19990;-67
2024/01/12 04:48:03;;;;;;;;;;;;;;;11.70;51.97;103443.88;5091866;28;19916;-65
2024/01/12 04:50:28;;;;;;;;;;;;;;;11.82;51.62;103453.28;5073567;28;19916;-67
2024/01/12 04:52:54;;;;;;;;;;;;;;;11.79;51.59;103453.66;5074036;28;19962;-66
2024/01/12 04:55:19;;;;;;;;;;;;;;;11.72;51.91;103447.22;5108808;28;19915;-65
2024/01/12 04:57:45;;;;;;;;;;;;;;;11.51;52.43;103450.41;5112558;28;19980;-66
2024/01/12 05:00:10;;;;;;;;;;;;;;;11.63;52.71;103445.53;5112324;28;19930;-65
2024/01/12 05:02:35;;;;;;;;;;;;;;;11.75;52.07;103445.06;5107915;28;19912;-69
2024/01/12 05:05:02;;;;;;;;;;;;;;;11.84;51.40;103440.50;5096821;28;19964;-68
2024/01/12 05:07:28;;;;;;;;;;;;;;;11.80;51.75;103439.16;5089310;28;20401;-68
2024/01/12 05:09:53;;;;;;;;;;;;;;;11.78;51.74;103436.63;5103692;28;19920;-68
2024/01/12 05:12:18;;;;;;;;;;;;;;;11.72;52.02;103440.00;5111738;28;19916;-70
2024/01/12 05:14:44;;;;;;;;;;;;;;;11.89;51.81;103433.56;5111575;28;19916;-68
2024/01/12 05:17:09;;;;;;;;;;;;;;;11.52;52.92;103439.47;5112312;28;20014;-69
2024/01/12 05:19:35;;;;;;;;;;;;;;;11.65;52.85;103441.66;5112414;28;19995;-68
2024/01/12 05:22:00;;;;;;;;;;;;;;;11.72;52.37;103445.38;5112080;28;20017;-68
2024/01/12 05:24:25;;;;;;;;;;;;;;;11.72;52.12;103444.53;5111798;28;19942;-67
2024/01/12 05:26:50;;;;;;;;;;;;;;;11.67;52.23;103453.16;5093451;28;20428;-68
2024/01/12 05:29:15;;;;;;;;;;;;;;;11.31;53.09;103444.50;5091387;28;19919;-68
2024/01/12 05:31:44;;;;;;;;;;;;;;;11.43;53.42;103447.72;5130822;27;19914;-68
2024/01/12 05:34:09;;;;;;;;;;;;;;;11.73;52.56;103444.41;5132180;27;19920;-68
2024/01/12 05:36:35;;;;;;;;;;;;;;;11.61;52.24;103443.00;5115051;27;19941;-69
2024/01/12 05:39:00;;;;;;;;;;;;;;;11.49;52.79;103426.34;5121823;27;20295;-70
2024/01/12 05:41:25;;;;;;;;;;;;;;;11.44;52.92;103426.00;5132094;27;20286;-68
2024/01/12 05:43:50;;;;;;;;;;;;;;;11.58;52.91;103427.19;5132336;27;19911;-68
2024/01/12 05:46:17;;;;;;;;;;;;;;;11.47;52.76;103433.75;5132063;27;19911;-68
2024/01/12 05:48:42;;;;;;;;;;;;;;;11.41;52.94;103425.50;5132035;27;19918;-68
2024/01/12 05:51:07;;;;;;;;;;;;;;;11.40;53.11;103421.97;5118754;27;19912;-68
2024/01/12 05:53:33;;;;;;;;;;;;;;;11.43;53.08;103416.25;5111716;28;19966;-68
2024/01/12 05:55:58;;;;;;;;;;;;;;;11.42;53.07;103427.16;5115801;27;19920;-68
2024/01/12 05:58:23;;;;;;;;;;;;;;;11.56;52.99;103418.44;5110000;27;19915;-70
2024/01/12 06:00:49;;;;;;;;;;;;;;;11.45;53.29;103424.16;5110637;28;19927;-68
2024/01/12 06:03:14;;;;;;;;;;;;;;;11.46;53.14;103423.97;5107848;28;19919;-68
2024/01/12 06:05:44;;;;;;;;;;;;;;;11.02;54.55;103419.06;5110955;28;19954;-68
2024/01/12 06:08:09;;;;;;;;;;;;;;;10.73;55.91;103414.09;5110208;28;20329;-68
2024/01/12 06:10:34;;;;;;;;;;;;;;;11.26;54.50;103413.72;5110346;28;19916;-68
2024/01/12 06:12:59;;;;;;;;;;;;;;;11.48;53.88;103416.56;5110506;28;19919;-68
2024/01/12 06:15:24;;;;;;;;;;;;;;;11.40;53.66;103416.56;5100593;28;19966;-68
2024/01/12 06:17:50;;;;;;;;;;;;;;;11.14;54.60;103412.34;5090883;28;19927;-68
2024/01/12 06:20:15;;;;;;;;;;;;;;;10.73;56.62;103416.78;5090990;28;20403;-68
2024/01/12 06:22:40;;;;;;;;;;;;;;;10.97;55.63;103416.00;5091391;28;19903;-68
2024/01/12 06:25:06;;;;;;;;;;;;;;;11.24;54.60;103418.44;5090949;28;20359;-68
2024/01/12 06:27:31;;;;;;;;;;;;;;;11.01;54.89;103414.66;5090725;28;19912;-68
2024/01/12 06:29:56;;;;;;;;;;;;;;;11.30;54.00;103409.69;5094474;28;19950;-68
2024/01/12 06:32:21;;;;;;;;;;;;;;;11.34;53.77;103408.34;5110891;28;19912;-69
2024/01/12 06:34:47;;;;;;;;;;;;;;;11.22;54.23;103402.41;5111184;28;19923;-68
2024/01/12 06:37:12;;;;;;;;;;;;;;;10.97;54.46;103398.03;5110713;28;20279;-69
2024/01/12 06:39:39;;;;;;;;;;;;;;;11.13;54.76;103400.75;5110859;28;19926;-69
2024/01/12 06:42:04;;;;;;;;;;;;;;;11.08;54.21;103396.88;5110872;28;19912;-68
2024/01/12 06:44:29;;;;;;;;;;;;;;;10.63;55.58;103400.78;5109857;28;19946;-68
2024/01/12 06:46:55;;;;;;;;;;;;;;;10.83;56.02;103395.16;5110852;28;19916;-68
2024/01/12 06:49:20;;;;;;;;;;;;;;;10.64;56.86;103398.94;5110078;28;19927;-68
2024/01/12 06:51:46;;;;;;;;;;;;;;;10.77;55.75;103395.81;5110509;28;19911;-68
2024/01/12 06:54:11;;;;;;;;;;;;;;;10.59;57.38;103399.44;5110422;28;19912;-69
2024/01/12 06:56:37;;;;;;;;;;;;;;;10.71;57.03;103400.00;5110511;28;19915;-68
2024/01/12 06:59:02;;;;;;;;;;;;;;;10.99;55.75;103405.91;5111345;28;19912;-68
2024/01/12 07:01:27;;;;;;;;;;;;;;;11.10;55.35;103405.63;5110662;28;20410;-64
2024/01/12 07:03:53;;;;;;;;;;;;;;;10.89;55.22;103414.13;5110808;28;19947;-64
2024/01/12 07:06:18;;;;;;;;;;;;;;;11.07;55.28;103417.56;5110667;28;19916;-64
2024/01/12 07:08:43;;;;;;;;;;;;;;;11.00;55.33;103408.47;5110547;28;19922;-64
2024/01/12 07:11:08;;;;;;;;;;;;;;;10.62;57.48;103409.03;5113766;28;19912;-64
2024/01/12 07:13:33;;;;;;;;;;;;;;;11.08;55.27;103419.25;5114704;28;19998;-64
2024/01/12 07:15:59;;;;;;;;;;;;;;;11.15;55.09;103425.63;5105224;28;20026;-64
2024/01/12 07:18:24;;;;;;;;;;;;;;;11.20;55.17;103417.06;5102312;28;19911;-69
2024/01/12 07:20:49;;;;;;;;;;;;;;;11.27;54.60;103423.47;5114454;28;20365;-69
2024/01/12 07:23:14;;;;;;;;;;;;;;;10.96;55.79;103425.94;5114092;28;19919;-69
2024/01/12 07:25:40;;;;;;;;;;;;;;;11.18;55.44;103424.47;5097254;28;19918;-69
2024/01/12 07:28:05;;;;;;;;;;;;;;;11.02;55.54;103427.13;5118163;27;19916;-69
2024/01/12 07:30:31;;;;;;;;;;;;;;;11.26;54.50;103428.00;5109420;27;20006;-69
2024/01/12 07:32:56;;;;;;;;;;;;;;;11.11;55.37;103426.97;5103012;28;19955;-69
2024/01/12 07:35:21;;;;;;;;;;;;;;;11.20;54.96;103431.34;5097594;28;19970;-68
2024/01/12 07:37:47;;;;;;;;;;;;;;;11.44;54.29;103434.06;5106175;28;19998;-68
2024/01/12 07:40:12;;;;;;;;;;;;;;;11.23;54.94;103438.25;5105869;27;20406;-69
2024/01/12 07:42:38;;;;;;;;;;;;;;;11.41;54.49;103444.34;5107404;28;19920;-69
2024/01/12 07:45:04;;;;;;;;;;;;;;;11.50;53.94;103438.78;5100815;28;19954;-69
2024/01/12 07:47:29;;;;;;;;;;;;;;;11.47;53.77;103441.00;5105645;28;19922;-69
2024/01/12 07:49:54;;;;;;;;;;;;;;;11.05;54.72;103435.72;5090727;28;19994;-69
2024/01/12 07:52:20;;;;;;;;;;;;;;;11.03;55.19;103432.34;5102658;28;19988;-69
2024/01/12 07:54:45;;;;;;;;;;;;;;;10.62;56.87;103427.84;5101866;28;19961;-70
2024/01/12 07:57:10;;;;;;;;;;;;;;;10.55;57.36;103426.81;5103162;28;19916;-69
2024/01/12 07:59:35;;;;;;;;;;;;;;;10.48;58.17;103423.94;5097060;28;19923;-62
2024/01/12 08:02:01;;;;;;;;;;;;;;;10.86;56.51;103422.56;5097636;28;19958;-63
2024/01/12 08:04:27;;;;;;;;;;;;;;;11.23;55.62;103428.34;5104052;28;19981;-63
2024/01/12 08:06:52;;;;;;;;;;;;;;;10.58;56.50;103421.09;5111838;28;20287;-65
2024/01/12 08:09:17;;;;;;;;;;;;;;;10.87;57.17;103418.03;5100321;28;19916;-64
2024/01/12 08:11:43;;;;;;;;;;;;;;;10.77;57.06;103415.44;5111558;28;19967;-64
2024/01/12 08:14:08;;;;;;;;;;;;;;;10.77;56.38;103425.38;5111711;28;19911;-64
2024/01/12 08:16:33;;;;;;;;;;;;;;;11.05;55.77;103432.16;5111267;28;19904;-65
2024/01/12 08:18:59;;;;;;;;;;;;;;;11.01;55.98;103420.91;5110980;28;20284;-65
2024/01/12 08:21:25;;;;;;;;;;;;;;;11.30;55.38;103415.06;5092395;28;19912;-65
2024/01/12 08:23:50;;;;;;;;;;;;;;;11.40;55.47;103413.03;5111032;28;19919;-67
2024/01/12 08:26:15;;;;;;;;;;;;;;;11.77;53.90;103407.19;5105527;28;20231;-66
2024/01/12 08:28:40;;;;;;;;;;;;;;;11.24;55.72;103411.16;5091230;28;19935;-66
2024/01/12 08:31:05;;;;;;;;;;;;;;;11.41;54.67;103412.88;5109039;28;20382;-66
2024/01/12 08:33:31;;;;;;;;;;;;;;;10.51;57.34;103412.03;5086459;28;20006;-64
2024/01/12 08:35:56;;;;;;;;;;;;;;;11.09;56.63;103420.06;5093189;28;19934;-71
2024/01/12 08:38:21;;;;;;;;;;;;;;;11.52;54.82;103418.94;5110505;28;19912;-67
2024/01/12 08:40:46;;;;;;;;;;;;;;;11.47;55.11;103417.59;5111662;28;20252;-70
2024/01/12 08:43:12;;;;;;;;;;;;;;;11.46;55.36;103415.91;5100714;28;19931;-72
2024/01/12 08:45:37;;;;;;;;;;;;;;;11.60;55.09;103418.91;5110506;28;19975;-71
2024/01/12 08:48:03;;;;;;;;;;;;;;;11.24;55.77;103415.75;5099707;28;19912;-71
2024/01/12 08:50:30;;;;;;;;;;;;;;;11.31;55.44;103406.81;5102639;28;19922;-69
2024/01/12 08:52:56;;;;;;;;;;;;;;;11.42;55.44;103411.84;5091340;28;19904;-70
2024/01/12 08:55:21;;;;;;;;;;;;;;;11.52;55.46;103410.88;5102459;28;19915;-71
2024/01/12 08:57:46;;;;;;;;;;;;;;;10.96;56.59;103406.25;5093519;28;19916;-69
2024/01/12 09:00:12;;;;;;;;;;;;;;;10.97;57.58;103413.31;5110504;28;20516;-70
2024/01/12 09:02:38;;;;;;;;;;;;;;;11.57;55.93;103412.03;5110166;28;19970;-70
2024/01/12 09:05:03;;;;;;;;;;;;;;;11.44;55.60;103411.69;5109875;28;20382;-65
2024/01/12 09:07:28;;;;;;;;;;;;;;;11.58;54.98;103419.09;5089069;28;19935;-65
2024/01/12 09:09:54;;;;;;;;;;;;;;;11.81;54.60;103414.72;5107901;28;19939;-66
2024/01/12 09:12:19;;;;;;;;;;;;;;;11.80;54.63;103415.75;5103295;28;20007;-65
2024/01/12 09:14:44;;;;;;;;;;;;;;;11.75;54.97;103423.53;5101265;28;19924;-65
2024/01/12 09:17:10;;;;;;;;;;;;;;;11.59;54.97;103415.41;5108426;28;20025;-65
2024/01/12 09:19:35;;;;;;;;;;;;;;;11.89;54.09;103408.50;5109836;28;19908;-65
2024/01/12 09:22:03;;;;;;;;;;;;;;;11.50;55.56;103417.25;5108161;28;19927;-65
2024/01/12 09:24:28;;;;;;;;;;;;;;;11.58;55.68;103412.91;5108884;28;19938;-63
2024/01/12 09:26:53;;;;;;;;;;;;;;;11.88;54.74;103409.50;5099675;28;19919;-66
2024/01/12 09:29:18;;;;;;;;;;;;;;;11.38;55.58;103402.44;5100043;28;19920;-65
2024/01/12 09:31:44;;;;;;;;;;;;;;;11.56;55.48;103404.97;5104009;28;19935;-64
2024/01/12 09:34:09;;;;;;;;;;;;;;;11.34;56.49;103405.66;5101106;28;19920;-64
2024/01/12 09:36:34;;;;;;;;;;;;;;;11.57;56.04;103408.50;5088155;28;19920;-64
2024/01/12 09:38:59;;;;;;;;;;;;;;;11.96;54.68;103402.25;5096973;28;19961;-64
2024/01/12 09:41:31;;;;;;;;;;;;;;;12.01;54.40;103405.25;5104426;28;19959;-65
2024/01/12 09:43:57;;;;;;;;;;;;;;;11.20;56.70;103406.31;5102027;28;19916;-65
2024/01/12 09:46:28;;;;;;;;;;;;;;;12.17;54.36;103407.91;5103160;28;19919;-65
2024/01/12 09:48:53;;;;;;;;;;;;;;;12.15;53.85;103409.09;5103125;28;19911;-65
2024/01/12 09:51:20;;;;;;;;;;;;;;;12.20;53.67;103409.44;5104454;28;19931;-65
2024/01/12 09:53:45;;;;;;;;;;;;;;;11.96;54.99;103404.09;5105207;28;19931;-65
2024/01/12 09:56:11;;;;;;;;;;;;;;;12.22;53.54;103402.88;5102682;28;19912;-64
2024/01/12 09:58:38;;;;;;;;;;;;;;;12.28;53.25;103402.16;5090577;28;20102;-64
2024/01/12 10:01:04;;;;;;;;;;;;;;;12.49;53.19;103396.19;5097973;28;20053;-64
2024/01/12 10:03:30;;;;;;;;;;;;;;;12.59;52.64;103393.25;5088582;28;19916;-63
2024/01/12 10:05:55;;;;;;;;;;;;;;;12.44;52.86;103390.47;5099375;28;19923;-65
2024/01/12 10:08:21;;;;;;;;;;;;;;;12.52;53.03;103389.59;5090780;28;19912;-66
2024/01/12 10:10:46;;;;;;;;;;;;;;;12.09;54.87;103388.22;5088848;28;19908;-64
2024/01/12 10:13:13;;;;;;;;;;;;;;;12.49;53.59;103401.56;5087745;28;19923;-64
2024/01/12 10:15:40;;;;;;;;;;;;;;;12.69;52.99;103399.28;5100799;28;19916;-64
2024/01/12 10:18:06;;;;;;;;;;;;;;;12.44;53.26;103389.63;5089036;28;19915;-64
2024/01/12 10:20:40;;;;;;;;;;;;;;;12.62;53.61;103384.84;5090466;28;19923;-65
2024/01/12 10:23:05;;;;;;;;;;;;;;;12.57;52.76;103385.34;5089074;28;20354;-66
2024/01/12 10:25:31;;;;;;;;;;;;;;;13.06;51.87;103383.22;5094552;28;20022;-64
2024/01/12 10:27:57;;;;;;;;;;;;;;;13.10;51.55;103389.94;5107423;28;19940;-65
2024/01/12 10:30:22;;;;;;;;;;;;;;;13.12;51.65;103388.75;5108478;28;19915;-66
2024/01/12 10:32:51;;;;;;;;;;;;;;;12.80;52.36;103385.38;5107243;28;19916;-69
2024/01/12 10:35:16;;;;;;;;;;;;;;;12.40;53.59;103391.84;5108599;28;20335;-70
2024/01/12 10:37:42;;;;;;;;;;;;;;;12.56;53.62;103399.84;5098836;28;19923;-68
2024/01/12 10:40:08;;;;;;;;;;;;;;;12.89;52.61;103392.44;5106513;28;19919;-69
2024/01/12 10:42:34;;;;;;;;;;;;;;;12.73;53.00;103397.91;5110803;28;19912;-68
2024/01/12 10:45:03;;;;;;;;;;;;;;;12.71;52.97;103397.25;5112120;28;19922;-69
2024/01/12 10:47:32;;;;;;;;;;;;;;;12.94;52.51;103401.66;5114986;28;20375;-69
2024/01/12 10:50:04;;;;;;;;;;;;;;;13.03;52.27;103397.91;5115539;28;20010;-67
2024/01/12 10:52:37;;;;;;;;;;;;;;;12.80;52.19;103396.19;5114724;28;19918;-68
2024/01/12 10:55:09;;;;;;;;;;;;;;;13.11;51.98;103391.63;5114551;28;20005;-68
2024/01/12 10:57:35;;;;;;;;;;;;;;;13.18;52.14;103398.84;5114709;28;20447;-67
2024/01/12 11:00:01;;;;;;;;;;;;;;;12.34;53.60;103381.75;5114657;28;19927;-68
2024/01/12 11:02:26;;;;;;;;;;;;;;;11.60;57.22;103394.69;5114435;28;19912;-67
2024/01/12 11:04:56;;;;;;;;;;;;;;;11.90;56.60;103394.00;5115064;28;19916;-68
2024/01/12 11:07:21;;;;;;;;;;;;;;;10.44;61.59;103398.38;5114420;28;19916;-68
2024/01/12 11:09:46;;;;;;;;;;;;;;;10.94;60.44;103392.13;5114614;28;20050;-68
2024/01/12 11:12:21;;;;;;;;;;;;;;;11.45;59.64;103391.84;5114277;28;20326;-68
2024/01/12 11:14:46;;;;;;;;;;;;;;;10.93;60.36;103383.22;5093809;28;20011;-68
2024/01/12 11:17:11;;;;;;;;;;;;;;;11.60;59.74;103384.75;5093932;28;19983;-70
2024/01/12 11:19:37;;;;;;;;;;;;;;;11.48;59.38;103386.97;5094420;28;20329;-67
2024/01/12 11:22:02;;;;;;;;;;;;;;;11.34;59.47;103382.25;5093923;28;20364;-70
2024/01/12 11:24:28;;;;;;;;;;;;;;;11.20;59.72;103374.84;5093807;28;19973;-69
2024/01/12 11:26:53;;;;;;;;;;;;;;;11.70;59.63;103372.00;5093916;28;20032;-69
2024/01/12 11:29:19;;;;;;;;;;;;;;;11.25;60.94;103377.88;5093669;28;19908;-68
2024/01/12 11:31:51;;;;;;;;;;;;;;;11.36;61.29;103365.94;5094291;28;19904;-69
2024/01/12 11:34:16;;;;;;;;;;;;;;;11.40;60.96;103369.94;5093751;28;20318;-68
2024/01/12 11:36:42;;;;;;;;;;;;;;;12.19;58.83;103365.47;5093353;28;19955;-72
2024/01/12 11:39:10;;;;;;;;;;;;;;;12.09;59.05;103359.44;5093598;28;20015;-71
2024/01/12 11:41:36;;;;;;;;;;;;;;;12.52;57.18;103358.06;5093607;28;20299;-69
2024/01/12 11:44:01;;;;;;;;;;;;;;;11.68;60.16;103351.63;5110182;28;19923;-70
2024/01/12 11:46:29;;;;;;;;;;;;;;;11.90;59.41;103349.06;5095400;28;19915;-69
2024/01/12 11:48:54;;;;;;;;;;;;;;;12.21;58.44;103352.66;5113621;28;20006;-69
2024/01/12 11:51:20;;;;;;;;;;;;;;;11.18;61.25;103349.94;5113670;28;20003;-70
2024/01/12 11:53:48;;;;;;;;;;;;;;;12.00;60.24;103344.31;5094861;28;19918;-69
2024/01/12 11:56:13;;;;;;;;;;;;;;;11.36;62.07;103331.78;5112506;28;19915;-72
2024/01/12 11:58:39;;;;;;;;;;;;;;;10.82;64.71;103332.44;5114065;28;19965;-72
2024/01/12 12:01:06;;;;;;;;;;;;;;;11.78;62.20;103326.19;5094882;28;19934;-71
2024/01/12 12:03:31;;;;;;;;;;;;;;;10.84;65.39;103333.09;5113444;28;20371;-73
2024/01/12 12:05:56;;;;;;;;;;;;;;;11.45;64.63;103324.53;5113691;28;19916;-75
2024/01/12 12:08:22;;;;;;;;;;;;;;;11.44;64.82;103325.53;5113412;28;19912;-74
2024/01/12 12:10:47;;;;;;;;;;;;;;;11.69;63.50;103319.16;5095614;28;20542;-75
2024/01/12 12:13:13;;;;;;;;;;;;;;;10.61;66.38;103315.94;5113492;28;19923;-74
2024/01/12 12:15:38;;;;;;;;;;;;;;;11.97;63.34;103306.91;5107250;28;19994;-70
2024/01/12 12:18:04;;;;;;;;;;;;;;;11.83;63.72;103304.94;5093029;28;19912;-71
2024/01/12 12:20:29;;;;;;;;;;;;;;;11.80;63.79;103291.81;5092875;28;19923;-70
2024/01/12 12:22:56;;;;;;;;;;;;;;;12.54;61.04;103285.06;5104678;27;19914;-71
2024/01/12 12:25:21;;;;;;;;;;;;;;;11.83;62.53;103277.19;5130649;27;20511;-70
2024/01/12 12:27:46;;;;;;;;;;;;;;;12.06;62.78;103276.25;5107162;27;19930;-70